sensor_id;sensor_type;location;lat;lon;timestamp;P1;durP1;ratioP1;P2;durP2;ratioP2
82952;SDS011;74888;40.196;44.560;2024-03-08T00:00:16;11.13;;;4.70;;
82952;SDS011;74888;40.196;44.560;2024-03-08T00:02:48;10.07;;;4.43;;
82952;SDS011;74888;40.196;44.560;2024-03-08T00:05:17;9.35;;;4.28;;
82952;SDS011;74888;40.196;44.560;2024-03-08T00:07:44;11.75;;;5.32;;
82952;SDS011;74888;40.196;44.560;2024-03-08T00:10:15;11.88;;;5.50;;
82952;SDS011;74888;40.196;44.560;2024-03-08T00:12:44;12.02;;;4.85;;
82952;SDS011;74888;40.196;44.560;2024-03-08T00:15:13;12.70;;;5.50;;
82952;SDS011;74888;40.196;44.560;2024-03-08T00:17:41;14.55;;;5.60;;
82952;SDS011;74888;40.196;44.560;2024-03-08T00:20:07;16.40;;;6.68;;
82952;SDS011;74888;40.196;44.560;2024-03-08T00:22:41;12.77;;;5.55;;
82952;SDS011;74888;40.196;44.560;2024-03-08T00:25:08;9.07;;;3.92;;
82952;SDS011;74888;40.196;44.560;2024-03-08T00:27:39;10.02;;;4.20;;
82952;SDS011;74888;40.196;44.560;2024-03-08T00:32:33;7.38;;;3.50;;
82952;SDS011;74888;40.196;44.560;2024-03-08T00:35:00;8.95;;;3.90;;
82952;SDS011;74888;40.196;44.560;2024-03-08T00:37:25;6.60;;;2.60;;
82952;SDS011;74888;40.196;44.560;2024-03-08T00:39:51;5.95;;;2.75;;
82952;SDS011;74888;40.196;44.560;2024-03-08T00:42:19;6.28;;;2.95;;
82952;SDS011;74888;40.196;44.560;2024-03-08T00:44:45;7.57;;;3.10;;
82952;SDS011;74888;40.196;44.560;2024-03-08T00:47:11;7.43;;;2.83;;
82952;SDS011;74888;40.196;44.560;2024-03-08T00:49:40;8.20;;;3.30;;
82952;SDS011;74888;40.196;44.560;2024-03-08T00:52:08;10.43;;;2.80;;
82952;SDS011;74888;40.196;44.560;2024-03-08T00:54:34;7.90;;;2.78;;
82952;SDS011;74888;40.196;44.560;2024-03-08T00:57:01;5.78;;;2.25;;
82952;SDS011;74888;40.196;44.560;2024-03-08T00:59:31;5.72;;;2.50;;
82952;SDS011;74888;40.196;44.560;2024-03-08T01:02:08;6.68;;;2.42;;
82952;SDS011;74888;40.196;44.560;2024-03-08T01:04:34;7.25;;;2.30;;
82952;SDS011;74888;40.196;44.560;2024-03-08T01:07:00;5.78;;;2.13;;
82952;SDS011;74888;40.196;44.560;2024-03-08T01:09:26;4.88;;;1.77;;
82952;SDS011;74888;40.196;44.560;2024-03-08T01:11:52;4.90;;;1.98;;
82952;SDS011;74888;40.196;44.560;2024-03-08T01:14:22;4.75;;;2.00;;
82952;SDS011;74888;40.196;44.560;2024-03-08T01:16:48;4.80;;;1.80;;
82952;SDS011;74888;40.196;44.560;2024-03-08T01:19:14;7.55;;;2.20;;
82952;SDS011;74888;40.196;44.560;2024-03-08T01:21:41;4.28;;;2.13;;
82952;SDS011;74888;40.196;44.560;2024-03-08T01:24:07;6.05;;;2.10;;
82952;SDS011;74888;40.196;44.560;2024-03-08T01:26:38;7.20;;;3.50;;
82952;SDS011;74888;40.196;44.560;2024-03-08T01:29:05;7.40;;;2.88;;
82952;SDS011;74888;40.196;44.560;2024-03-08T01:31:31;6.28;;;2.33;;
82952;SDS011;74888;40.196;44.560;2024-03-08T01:33:57;7.75;;;2.67;;
82952;SDS011;74888;40.196;44.560;2024-03-08T01:36:25;7.72;;;2.60;;
82952;SDS011;74888;40.196;44.560;2024-03-08T01:38:51;10.50;;;3.13;;
82952;SDS011;74888;40.196;44.560;2024-03-08T01:41:19;6.90;;;2.42;;
82952;SDS011;74888;40.196;44.560;2024-03-08T01:43:51;7.97;;;3.03;;
82952;SDS011;74888;40.196;44.560;2024-03-08T01:46:18;9.15;;;3.10;;
82952;SDS011;74888;40.196;44.560;2024-03-08T01:48:47;10.10;;;3.28;;
82952;SDS011;74888;40.196;44.560;2024-03-08T01:51:14;12.88;;;4.10;;
82952;SDS011;74888;40.196;44.560;2024-03-08T01:56:11;14.80;;;4.75;;
82952;SDS011;74888;40.196;44.560;2024-03-08T01:58:38;15.23;;;4.82;;
82952;SDS011;74888;40.196;44.560;2024-03-08T02:01:08;12.90;;;5.10;;
82952;SDS011;74888;40.196;44.560;2024-03-08T02:03:36;12.48;;;4.88;;
82952;SDS011;74888;40.196;44.560;2024-03-08T02:06:03;15.63;;;4.95;;
82952;SDS011;74888;40.196;44.560;2024-03-08T02:08:32;14.95;;;5.03;;
82952;SDS011;74888;40.196;44.560;2024-03-08T02:10:57;15.35;;;4.95;;
82952;SDS011;74888;40.196;44.560;2024-03-08T02:13:26;15.30;;;4.32;;
82952;SDS011;74888;40.196;44.560;2024-03-08T02:15:59;12.18;;;5.07;;
82952;SDS011;74888;40.196;44.560;2024-03-08T02:18:26;18.58;;;6.10;;
82952;SDS011;74888;40.196;44.560;2024-03-08T02:20:53;13.82;;;4.93;;
82952;SDS011;74888;40.196;44.560;2024-03-08T02:23:19;16.88;;;4.68;;
82952;SDS011;74888;40.196;44.560;2024-03-08T02:28:13;14.57;;;5.30;;
82952;SDS011;74888;40.196;44.560;2024-03-08T02:30:39;14.60;;;4.65;;
82952;SDS011;74888;40.196;44.560;2024-03-08T02:35:31;14.73;;;4.35;;
82952;SDS011;74888;40.196;44.560;2024-03-08T02:37:58;16.00;;;5.20;;
82952;SDS011;74888;40.196;44.560;2024-03-08T02:40:25;13.02;;;4.88;;
82952;SDS011;74888;40.196;44.560;2024-03-08T02:42:58;12.95;;;4.88;;
82952;SDS011;74888;40.196;44.560;2024-03-08T02:45:23;12.93;;;5.70;;
82952;SDS011;74888;40.196;44.560;2024-03-08T02:47:49;19.10;;;7.43;;
82952;SDS011;74888;40.196;44.560;2024-03-08T02:50:15;22.90;;;7.65;;
82952;SDS011;74888;40.196;44.560;2024-03-08T02:52:42;23.17;;;8.30;;
82952;SDS011;74888;40.196;44.560;2024-03-08T02:55:08;16.38;;;6.30;;
82952;SDS011;74888;40.196;44.560;2024-03-08T02:57:36;18.60;;;6.72;;
82952;SDS011;74888;40.196;44.560;2024-03-08T03:00:02;16.30;;;6.50;;
82952;SDS011;74888;40.196;44.560;2024-03-08T03:02:33;17.85;;;6.80;;
82952;SDS011;74888;40.196;44.560;2024-03-08T03:04:58;15.45;;;6.00;;
82952;SDS011;74888;40.196;44.560;2024-03-08T03:07:28;17.48;;;6.43;;
82952;SDS011;74888;40.196;44.560;2024-03-08T03:09:55;15.43;;;6.43;;
82952;SDS011;74888;40.196;44.560;2024-03-08T03:12:24;19.42;;;8.23;;
82952;SDS011;74888;40.196;44.560;2024-03-08T03:14:50;18.10;;;7.68;;
82952;SDS011;74888;40.196;44.560;2024-03-08T03:17:17;19.75;;;7.60;;
82952;SDS011;74888;40.196;44.560;2024-03-08T03:22:12;16.17;;;5.43;;
82952;SDS011;74888;40.196;44.560;2024-03-08T03:24:38;13.93;;;5.03;;
82952;SDS011;74888;40.196;44.560;2024-03-08T03:27:05;17.00;;;7.30;;
82952;SDS011;74888;40.196;44.560;2024-03-08T03:29:36;13.10;;;5.85;;
82952;SDS011;74888;40.196;44.560;2024-03-08T03:32:13;18.02;;;7.72;;
82952;SDS011;74888;40.196;44.560;2024-03-08T03:34:39;37.67;;;19.17;;
82952;SDS011;74888;40.196;44.560;2024-03-08T03:37:13;24.27;;;11.82;;
82952;SDS011;74888;40.196;44.560;2024-03-08T03:39:39;20.05;;;10.38;;
82952;SDS011;74888;40.196;44.560;2024-03-08T03:42:17;17.88;;;7.90;;
82952;SDS011;74888;40.196;44.560;2024-03-08T03:44:48;13.30;;;5.50;;
82952;SDS011;74888;40.196;44.560;2024-03-08T03:47:17;13.32;;;5.80;;
82952;SDS011;74888;40.196;44.560;2024-03-08T03:49:42;12.25;;;6.30;;
82952;SDS011;74888;40.196;44.560;2024-03-08T03:54:39;15.57;;;5.68;;
82952;SDS011;74888;40.196;44.560;2024-03-08T03:57:06;10.93;;;5.30;;
82952;SDS011;74888;40.196;44.560;2024-03-08T03:59:35;11.27;;;5.20;;
82952;SDS011;74888;40.196;44.560;2024-03-08T04:02:02;24.70;;;5.03;;
82952;SDS011;74888;40.196;44.560;2024-03-08T04:04:30;12.82;;;5.05;;
82952;SDS011;74888;40.196;44.560;2024-03-08T04:07:03;14.10;;;6.18;;
82952;SDS011;74888;40.196;44.560;2024-03-08T04:09:30;14.05;;;5.63;;
82952;SDS011;74888;40.196;44.560;2024-03-08T04:14:23;11.23;;;5.53;;
82952;SDS011;74888;40.196;44.560;2024-03-08T04:16:51;13.77;;;5.65;;
82952;SDS011;74888;40.196;44.560;2024-03-08T04:19:18;14.45;;;6.53;;
82952;SDS011;74888;40.196;44.560;2024-03-08T04:21:45;22.13;;;7.05;;
82952;SDS011;74888;40.196;44.560;2024-03-08T04:24:10;20.83;;;9.35;;
82952;SDS011;74888;40.196;44.560;2024-03-08T04:29:03;27.15;;;10.70;;
82952;SDS011;74888;40.196;44.560;2024-03-08T04:31:31;26.17;;;10.90;;
82952;SDS011;74888;40.196;44.560;2024-03-08T04:33:57;25.77;;;9.48;;
82952;SDS011;74888;40.196;44.560;2024-03-08T04:36:23;30.52;;;13.18;;
82952;SDS011;74888;40.196;44.560;2024-03-08T04:38:52;30.48;;;11.38;;
82952;SDS011;74888;40.196;44.560;2024-03-08T04:41:18;26.20;;;10.80;;
82952;SDS011;74888;40.196;44.560;2024-03-08T04:43:45;28.02;;;10.43;;
82952;SDS011;74888;40.196;44.560;2024-03-08T04:46:11;20.92;;;9.43;;
82952;SDS011;74888;40.196;44.560;2024-03-08T04:48:36;20.30;;;9.48;;
82952;SDS011;74888;40.196;44.560;2024-03-08T04:51:02;22.80;;;9.82;;
82952;SDS011;74888;40.196;44.560;2024-03-08T04:53:29;18.40;;;6.97;;
82952;SDS011;74888;40.196;44.560;2024-03-08T04:55:57;14.27;;;7.45;;
82952;SDS011;74888;40.196;44.560;2024-03-08T04:58:25;14.20;;;6.22;;
82952;SDS011;74888;40.196;44.560;2024-03-08T05:03:19;17.50;;;5.68;;
82952;SDS011;74888;40.196;44.560;2024-03-08T05:05:46;14.05;;;4.88;;
82952;SDS011;74888;40.196;44.560;2024-03-08T05:08:14;12.63;;;5.13;;
82952;SDS011;74888;40.196;44.560;2024-03-08T05:10:39;14.43;;;5.25;;
82952;SDS011;74888;40.196;44.560;2024-03-08T05:13:05;13.57;;;4.50;;
82952;SDS011;74888;40.196;44.560;2024-03-08T05:15:30;13.27;;;4.45;;
82952;SDS011;74888;40.196;44.560;2024-03-08T05:18:01;14.35;;;6.00;;
82952;SDS011;74888;40.196;44.560;2024-03-08T05:20:27;20.65;;;8.18;;
82952;SDS011;74888;40.196;44.560;2024-03-08T05:22:53;19.15;;;7.00;;
82952;SDS011;74888;40.196;44.560;2024-03-08T05:27:48;13.88;;;5.53;;
82952;SDS011;74888;40.196;44.560;2024-03-08T05:30:15;18.40;;;6.78;;
82952;SDS011;74888;40.196;44.560;2024-03-08T05:32:42;12.18;;;5.32;;
82952;SDS011;74888;40.196;44.560;2024-03-08T05:35:11;9.85;;;3.97;;
82952;SDS011;74888;40.196;44.560;2024-03-08T05:37:39;12.75;;;4.65;;
82952;SDS011;74888;40.196;44.560;2024-03-08T05:40:06;20.92;;;6.75;;
82952;SDS011;74888;40.196;44.560;2024-03-08T05:42:35;18.83;;;7.65;;
82952;SDS011;74888;40.196;44.560;2024-03-08T05:45:02;21.80;;;7.57;;
82952;SDS011;74888;40.196;44.560;2024-03-08T05:47:28;14.10;;;5.85;;
82952;SDS011;74888;40.196;44.560;2024-03-08T05:49:54;12.70;;;5.10;;
82952;SDS011;74888;40.196;44.560;2024-03-08T05:52:20;12.52;;;5.43;;
82952;SDS011;74888;40.196;44.560;2024-03-08T05:54:46;17.13;;;5.60;;
82952;SDS011;74888;40.196;44.560;2024-03-08T05:57:12;13.05;;;5.25;;
82952;SDS011;74888;40.196;44.560;2024-03-08T05:59:39;14.27;;;5.93;;
82952;SDS011;74888;40.196;44.560;2024-03-08T06:02:05;16.40;;;7.32;;
82952;SDS011;74888;40.196;44.560;2024-03-08T06:04:32;15.23;;;5.40;;
82952;SDS011;74888;40.196;44.560;2024-03-08T06:06:57;13.57;;;5.15;;
82952;SDS011;74888;40.196;44.560;2024-03-08T06:09:23;12.50;;;5.28;;
82952;SDS011;74888;40.196;44.560;2024-03-08T06:11:51;12.95;;;4.65;;
82952;SDS011;74888;40.196;44.560;2024-03-08T06:14:20;13.38;;;5.18;;
82952;SDS011;74888;40.196;44.560;2024-03-08T06:16:46;13.45;;;5.82;;
82952;SDS011;74888;40.196;44.560;2024-03-08T06:19:13;20.50;;;7.65;;
82952;SDS011;74888;40.196;44.560;2024-03-08T06:21:39;17.27;;;7.95;;
82952;SDS011;74888;40.196;44.560;2024-03-08T06:24:05;23.73;;;9.57;;
82952;SDS011;74888;40.196;44.560;2024-03-08T06:26:30;20.92;;;8.55;;
82952;SDS011;74888;40.196;44.560;2024-03-08T06:28:56;29.00;;;11.90;;
82952;SDS011;74888;40.196;44.560;2024-03-08T06:31:22;36.35;;;13.35;;
82952;SDS011;74888;40.196;44.560;2024-03-08T06:33:48;38.40;;;14.00;;
82952;SDS011;74888;40.196;44.560;2024-03-08T06:36:19;51.33;;;16.92;;
82952;SDS011;74888;40.196;44.560;2024-03-08T06:38:47;50.33;;;18.55;;
82952;SDS011;74888;40.196;44.560;2024-03-08T06:41:14;54.58;;;20.88;;
82952;SDS011;74888;40.196;44.560;2024-03-08T06:43:43;56.05;;;19.20;;
82952;SDS011;74888;40.196;44.560;2024-03-08T06:46:10;43.72;;;14.43;;
82952;SDS011;74888;40.196;44.560;2024-03-08T06:48:40;37.15;;;14.73;;
82952;SDS011;74888;40.196;44.560;2024-03-08T06:51:06;36.42;;;13.38;;
82952;SDS011;74888;40.196;44.560;2024-03-08T06:53:32;34.72;;;12.88;;
82952;SDS011;74888;40.196;44.560;2024-03-08T06:56:00;33.30;;;12.52;;
82952;SDS011;74888;40.196;44.560;2024-03-08T06:58:29;23.70;;;9.00;;
82952;SDS011;74888;40.196;44.560;2024-03-08T07:00:54;44.13;;;11.80;;
82952;SDS011;74888;40.196;44.560;2024-03-08T07:03:25;37.25;;;13.88;;
82952;SDS011;74888;40.196;44.560;2024-03-08T07:05:52;43.90;;;15.13;;
82952;SDS011;74888;40.196;44.560;2024-03-08T07:08:18;47.92;;;15.10;;
82952;SDS011;74888;40.196;44.560;2024-03-08T07:10:45;28.17;;;10.32;;
82952;SDS011;74888;40.196;44.560;2024-03-08T07:13:10;26.45;;;10.30;;
82952;SDS011;74888;40.196;44.560;2024-03-08T07:15:36;24.85;;;8.88;;
82952;SDS011;74888;40.196;44.560;2024-03-08T07:18:02;20.25;;;7.40;;
82952;SDS011;74888;40.196;44.560;2024-03-08T07:20:29;23.80;;;8.18;;
82952;SDS011;74888;40.196;44.560;2024-03-08T07:22:54;21.30;;;7.97;;
82952;SDS011;74888;40.196;44.560;2024-03-08T07:25:20;18.30;;;6.10;;
82952;SDS011;74888;40.196;44.560;2024-03-08T07:30:16;14.45;;;4.40;;
82952;SDS011;74888;40.196;44.560;2024-03-08T07:33:02;14.43;;;5.03;;
82952;SDS011;74888;40.196;44.560;2024-03-08T07:35:28;13.90;;;6.10;;
82952;SDS011;74888;40.196;44.560;2024-03-08T07:37:54;25.48;;;6.65;;
82952;SDS011;74888;40.196;44.560;2024-03-08T07:40:24;18.38;;;8.27;;
82952;SDS011;74888;40.196;44.560;2024-03-08T07:42:50;17.70;;;8.50;;
82952;SDS011;74888;40.196;44.560;2024-03-08T07:45:15;17.27;;;7.25;;
82952;SDS011;74888;40.196;44.560;2024-03-08T07:50:12;17.17;;;8.82;;
82952;SDS011;74888;40.196;44.560;2024-03-08T07:52:48;16.40;;;8.73;;
82952;SDS011;74888;40.196;44.560;2024-03-08T07:55:16;17.35;;;7.07;;
82952;SDS011;74888;40.196;44.560;2024-03-08T07:57:43;14.25;;;6.18;;
82952;SDS011;74888;40.196;44.560;2024-03-08T08:00:10;12.18;;;5.95;;
82952;SDS011;74888;40.196;44.560;2024-03-08T08:02:37;12.93;;;5.60;;
82952;SDS011;74888;40.196;44.560;2024-03-08T08:05:02;10.18;;;5.30;;
82952;SDS011;74888;40.196;44.560;2024-03-08T08:07:29;15.52;;;6.45;;
82952;SDS011;74888;40.196;44.560;2024-03-08T08:09:54;16.33;;;4.97;;
82952;SDS011;74888;40.196;44.560;2024-03-08T08:12:20;14.40;;;4.35;;
82952;SDS011;74888;40.196;44.560;2024-03-08T08:14:48;12.85;;;4.82;;
82952;SDS011;74888;40.196;44.560;2024-03-08T08:17:15;12.85;;;4.18;;
82952;SDS011;74888;40.196;44.560;2024-03-08T08:19:41;8.43;;;3.08;;
82952;SDS011;74888;40.196;44.560;2024-03-08T08:22:10;8.10;;;3.20;;
82952;SDS011;74888;40.196;44.560;2024-03-08T08:24:36;11.80;;;2.90;;
82952;SDS011;74888;40.196;44.560;2024-03-08T08:32:02;10.63;;;2.80;;
82952;SDS011;74888;40.196;44.560;2024-03-08T08:34:29;5.93;;;2.63;;
82952;SDS011;74888;40.196;44.560;2024-03-08T08:36:55;8.02;;;2.75;;
82952;SDS011;74888;40.196;44.560;2024-03-08T08:39:22;9.75;;;2.78;;
82952;SDS011;74888;40.196;44.560;2024-03-08T08:41:48;8.82;;;2.50;;
82952;SDS011;74888;40.196;44.560;2024-03-08T08:44:14;8.40;;;3.15;;
82952;SDS011;74888;40.196;44.560;2024-03-08T08:49:12;6.78;;;2.28;;
82952;SDS011;74888;40.196;44.560;2024-03-08T08:51:39;6.85;;;2.38;;
82952;SDS011;74888;40.196;44.560;2024-03-08T08:54:05;6.03;;;2.30;;
82952;SDS011;74888;40.196;44.560;2024-03-08T08:56:34;6.22;;;1.92;;
82952;SDS011;74888;40.196;44.560;2024-03-08T08:59:00;5.15;;;2.30;;
82952;SDS011;74888;40.196;44.560;2024-03-08T09:01:26;11.25;;;2.90;;
82952;SDS011;74888;40.196;44.560;2024-03-08T09:03:52;7.72;;;2.63;;
82952;SDS011;74888;40.196;44.560;2024-03-08T09:06:19;7.32;;;2.65;;
82952;SDS011;74888;40.196;44.560;2024-03-08T09:08:46;6.45;;;2.25;;
82952;SDS011;74888;40.196;44.560;2024-03-08T09:11:12;7.55;;;2.97;;
82952;SDS011;74888;40.196;44.560;2024-03-08T09:13:39;7.55;;;2.30;;
82952;SDS011;74888;40.196;44.560;2024-03-08T09:16:05;10.27;;;2.50;;
82952;SDS011;74888;40.196;44.560;2024-03-08T09:18:31;5.63;;;1.88;;
82952;SDS011;74888;40.196;44.560;2024-03-08T09:20:58;7.53;;;2.20;;
82952;SDS011;74888;40.196;44.560;2024-03-08T09:23:25;8.27;;;2.15;;
82952;SDS011;74888;40.196;44.560;2024-03-08T09:25:58;7.13;;;1.67;;
82952;SDS011;74888;40.196;44.560;2024-03-08T09:28:24;9.43;;;2.30;;
82952;SDS011;74888;40.196;44.560;2024-03-08T09:30:52;10.88;;;2.38;;
82952;SDS011;74888;40.196;44.560;2024-03-08T09:33:17;4.30;;;1.52;;
82952;SDS011;74888;40.196;44.560;2024-03-08T09:35:47;6.28;;;2.30;;
82952;SDS011;74888;40.196;44.560;2024-03-08T09:38:15;8.70;;;2.20;;
82952;SDS011;74888;40.196;44.560;2024-03-08T09:40:41;7.35;;;2.08;;
82952;SDS011;74888;40.196;44.560;2024-03-08T09:43:07;8.27;;;2.63;;
82952;SDS011;74888;40.196;44.560;2024-03-08T09:45:35;5.28;;;2.00;;
82952;SDS011;74888;40.196;44.560;2024-03-08T09:48:13;7.63;;;2.10;;
82952;SDS011;74888;40.196;44.560;2024-03-08T09:50:42;8.43;;;2.33;;
82952;SDS011;74888;40.196;44.560;2024-03-08T09:53:08;9.20;;;2.50;;
82952;SDS011;74888;40.196;44.560;2024-03-08T09:55:37;7.40;;;2.13;;
82952;SDS011;74888;40.196;44.560;2024-03-08T09:58:07;9.48;;;2.90;;
82952;SDS011;74888;40.196;44.560;2024-03-08T10:00:55;5.30;;;2.10;;
82952;SDS011;74888;40.196;44.560;2024-03-08T10:03:28;6.25;;;2.10;;
82952;SDS011;74888;40.196;44.560;2024-03-08T10:05:55;9.23;;;2.28;;
82952;SDS011;74888;40.196;44.560;2024-03-08T10:08:26;6.78;;;2.60;;
82952;SDS011;74888;40.196;44.560;2024-03-08T10:13:28;7.43;;;1.80;;
82952;SDS011;74888;40.196;44.560;2024-03-08T10:15:55;5.03;;;1.83;;
82952;SDS011;74888;40.196;44.560;2024-03-08T10:18:22;3.65;;;1.80;;
82952;SDS011;74888;40.196;44.560;2024-03-08T10:21:23;7.05;;;2.15;;
82952;SDS011;74888;40.196;44.560;2024-03-08T10:23:42;4.20;;;1.77;;
82952;SDS011;74888;40.196;44.560;2024-03-08T10:26:15;6.32;;;1.80;;
82952;SDS011;74888;40.196;44.560;2024-03-08T10:28:42;6.70;;;2.00;;
82952;SDS011;74888;40.196;44.560;2024-03-08T10:31:09;5.30;;;1.80;;
82952;SDS011;74888;40.196;44.560;2024-03-08T10:33:35;7.45;;;2.00;;
82952;SDS011;74888;40.196;44.560;2024-03-08T10:36:03;6.30;;;2.30;;
82952;SDS011;74888;40.196;44.560;2024-03-08T10:38:31;4.47;;;1.90;;
82952;SDS011;74888;40.196;44.560;2024-03-08T10:41:00;6.75;;;3.05;;
82952;SDS011;74888;40.196;44.560;2024-03-08T10:43:27;8.68;;;2.38;;
82952;SDS011;74888;40.196;44.560;2024-03-08T10:46:03;5.63;;;2.47;;
82952;SDS011;74888;40.196;44.560;2024-03-08T10:48:49;7.28;;;2.28;;
82952;SDS011;74888;40.196;44.560;2024-03-08T10:51:17;9.02;;;3.63;;
82952;SDS011;74888;40.196;44.560;2024-03-08T10:53:47;10.00;;;3.10;;
82952;SDS011;74888;40.196;44.560;2024-03-08T10:56:14;5.18;;;1.90;;
82952;SDS011;74888;40.196;44.560;2024-03-08T10:58:40;7.40;;;2.42;;
82952;SDS011;74888;40.196;44.560;2024-03-08T11:01:06;6.85;;;2.55;;
82952;SDS011;74888;40.196;44.560;2024-03-08T11:08:48;15.57;;;5.93;;
82952;SDS011;74888;40.196;44.560;2024-03-08T11:11:30;5.68;;;2.08;;
82952;SDS011;74888;40.196;44.560;2024-03-08T11:13:57;9.10;;;2.75;;
82952;SDS011;74888;40.196;44.560;2024-03-08T11:19:44;8.65;;;2.22;;
82952;SDS011;74888;40.196;44.560;2024-03-08T11:21:44;5.82;;;2.22;;
82952;SDS011;74888;40.196;44.560;2024-03-08T11:24:13;5.88;;;2.20;;
82952;SDS011;74888;40.196;44.560;2024-03-08T11:26:42;16.52;;;2.95;;
82952;SDS011;74888;40.196;44.560;2024-03-08T11:32:16;10.70;;;2.95;;
82952;SDS011;74888;40.196;44.560;2024-03-08T11:34:45;11.73;;;2.75;;
82952;SDS011;74888;40.196;44.560;2024-03-08T11:37:15;7.22;;;2.30;;
82952;SDS011;74888;40.196;44.560;2024-03-08T11:39:53;24.20;;;12.85;;
82952;SDS011;74888;40.196;44.560;2024-03-08T11:42:24;7.40;;;3.88;;
82952;SDS011;74888;40.196;44.560;2024-03-08T11:44:51;6.05;;;1.85;;
82952;SDS011;74888;40.196;44.560;2024-03-08T11:47:18;7.60;;;2.40;;
82952;SDS011;74888;40.196;44.560;2024-03-08T11:49:44;10.73;;;3.13;;
82952;SDS011;74888;40.196;44.560;2024-03-08T11:52:17;6.50;;;2.05;;
82952;SDS011;74888;40.196;44.560;2024-03-08T11:54:53;9.00;;;2.10;;
82952;SDS011;74888;40.196;44.560;2024-03-08T11:57:25;5.72;;;2.03;;
82952;SDS011;74888;40.196;44.560;2024-03-08T11:59:54;5.88;;;1.58;;
82952;SDS011;74888;40.196;44.560;2024-03-08T12:02:24;7.03;;;2.63;;
82952;SDS011;74888;40.196;44.560;2024-03-08T12:04:57;11.90;;;3.55;;
82952;SDS011;74888;40.196;44.560;2024-03-08T12:07:26;12.38;;;5.60;;
82952;SDS011;74888;40.196;44.560;2024-03-08T12:12:47;12.10;;;3.92;;
82952;SDS011;74888;40.196;44.560;2024-03-08T12:15:15;6.20;;;1.92;;
82952;SDS011;74888;40.196;44.560;2024-03-08T12:17:43;7.35;;;2.53;;
82952;SDS011;74888;40.196;44.560;2024-03-08T12:20:13;9.93;;;3.55;;
82952;SDS011;74888;40.196;44.560;2024-03-08T12:22:41;9.65;;;3.55;;
82952;SDS011;74888;40.196;44.560;2024-03-08T12:25:10;8.05;;;2.97;;
82952;SDS011;74888;40.196;44.560;2024-03-08T12:27:40;3.95;;;1.77;;
82952;SDS011;74888;40.196;44.560;2024-03-08T12:30:17;6.80;;;1.98;;
82952;SDS011;74888;40.196;44.560;2024-03-08T12:32:57;4.75;;;1.75;;
82952;SDS011;74888;40.196;44.560;2024-03-08T12:35:28;6.32;;;2.00;;
82952;SDS011;74888;40.196;44.560;2024-03-08T12:37:58;6.70;;;2.30;;
82952;SDS011;74888;40.196;44.560;2024-03-08T12:40:28;9.43;;;2.53;;
82952;SDS011;74888;40.196;44.560;2024-03-08T12:42:58;6.32;;;1.90;;
82952;SDS011;74888;40.196;44.560;2024-03-08T12:45:24;11.63;;;3.58;;
82952;SDS011;74888;40.196;44.560;2024-03-08T12:47:50;7.47;;;2.92;;
82952;SDS011;74888;40.196;44.560;2024-03-08T12:50:18;7.13;;;2.92;;
82952;SDS011;74888;40.196;44.560;2024-03-08T12:52:44;16.63;;;4.78;;
82952;SDS011;74888;40.196;44.560;2024-03-08T12:55:11;17.17;;;7.93;;
82952;SDS011;74888;40.196;44.560;2024-03-08T12:57:37;11.32;;;4.22;;
82952;SDS011;74888;40.196;44.560;2024-03-08T13:00:04;5.55;;;1.88;;
82952;SDS011;74888;40.196;44.560;2024-03-08T13:02:30;5.25;;;1.88;;
82952;SDS011;74888;40.196;44.560;2024-03-08T13:05:00;12.60;;;5.22;;
82952;SDS011;74888;40.196;44.560;2024-03-08T13:07:26;8.38;;;3.72;;
82952;SDS011;74888;40.196;44.560;2024-03-08T13:09:52;7.05;;;2.20;;
82952;SDS011;74888;40.196;44.560;2024-03-08T13:12:19;8.68;;;3.10;;
82952;SDS011;74888;40.196;44.560;2024-03-08T13:14:46;7.80;;;2.72;;
82952;SDS011;74888;40.196;44.560;2024-03-08T13:17:12;7.45;;;2.30;;
82952;SDS011;74888;40.196;44.560;2024-03-08T13:19:43;14.18;;;2.53;;
82952;SDS011;74888;40.196;44.560;2024-03-08T13:22:09;5.97;;;2.00;;
82952;SDS011;74888;40.196;44.560;2024-03-08T13:24:44;5.97;;;1.92;;
82952;SDS011;74888;40.196;44.560;2024-03-08T13:27:10;7.45;;;2.25;;
82952;SDS011;74888;40.196;44.560;2024-03-08T13:29:45;7.15;;;1.80;;
82952;SDS011;74888;40.196;44.560;2024-03-08T13:32:13;5.97;;;2.10;;
82952;SDS011;74888;40.196;44.560;2024-03-08T13:34:42;7.25;;;2.58;;
82952;SDS011;74888;40.196;44.560;2024-03-08T13:37:11;6.75;;;2.20;;
82952;SDS011;74888;40.196;44.560;2024-03-08T13:39:39;4.50;;;1.73;;
82952;SDS011;74888;40.196;44.560;2024-03-08T13:42:13;5.22;;;1.70;;
82952;SDS011;74888;40.196;44.560;2024-03-08T13:44:44;5.38;;;1.90;;
82952;SDS011;74888;40.196;44.560;2024-03-08T13:47:13;7.72;;;1.75;;
82952;SDS011;74888;40.196;44.560;2024-03-08T13:49:39;6.53;;;2.42;;
82952;SDS011;74888;40.196;44.560;2024-03-08T13:52:05;10.93;;;2.38;;
82952;SDS011;74888;40.196;44.560;2024-03-08T13:54:33;6.50;;;2.58;;
82952;SDS011;74888;40.196;44.560;2024-03-08T13:57:00;6.95;;;2.25;;
82952;SDS011;74888;40.196;44.560;2024-03-08T13:59:29;9.30;;;3.47;;
82952;SDS011;74888;40.196;44.560;2024-03-08T14:02:01;9.90;;;3.45;;
82952;SDS011;74888;40.196;44.560;2024-03-08T14:04:30;7.82;;;2.65;;
82952;SDS011;74888;40.196;44.560;2024-03-08T14:06:56;9.80;;;2.50;;
82952;SDS011;74888;40.196;44.560;2024-03-08T14:09:26;5.18;;;2.13;;
82952;SDS011;74888;40.196;44.560;2024-03-08T14:11:54;10.38;;;4.03;;
82952;SDS011;74888;40.196;44.560;2024-03-08T14:14:23;7.95;;;3.17;;
82952;SDS011;74888;40.196;44.560;2024-03-08T14:16:49;7.57;;;2.40;;
82952;SDS011;74888;40.196;44.560;2024-03-08T14:19:20;10.88;;;5.07;;
82952;SDS011;74888;40.196;44.560;2024-03-08T14:21:46;6.25;;;2.40;;
82952;SDS011;74888;40.196;44.560;2024-03-08T14:24:14;7.45;;;2.83;;
82952;SDS011;74888;40.196;44.560;2024-03-08T14:26:41;6.78;;;2.58;;
82952;SDS011;74888;40.196;44.560;2024-03-08T14:29:07;8.18;;;2.33;;
82952;SDS011;74888;40.196;44.560;2024-03-08T14:31:35;6.43;;;2.38;;
82952;SDS011;74888;40.196;44.560;2024-03-08T14:34:03;9.07;;;2.92;;
82952;SDS011;74888;40.196;44.560;2024-03-08T14:36:29;6.50;;;2.28;;
82952;SDS011;74888;40.196;44.560;2024-03-08T14:38:55;6.93;;;3.03;;
82952;SDS011;74888;40.196;44.560;2024-03-08T14:41:21;8.93;;;2.80;;
82952;SDS011;74888;40.196;44.560;2024-03-08T14:43:49;7.72;;;2.80;;
82952;SDS011;74888;40.196;44.560;2024-03-08T14:46:18;10.35;;;2.80;;
82952;SDS011;74888;40.196;44.560;2024-03-08T14:48:46;11.95;;;3.63;;
82952;SDS011;74888;40.196;44.560;2024-03-08T14:51:14;14.63;;;3.55;;
82952;SDS011;74888;40.196;44.560;2024-03-08T14:53:40;9.93;;;3.33;;
82952;SDS011;74888;40.196;44.560;2024-03-08T14:56:10;10.35;;;3.15;;
82952;SDS011;74888;40.196;44.560;2024-03-08T14:58:43;16.92;;;3.47;;
82952;SDS011;74888;40.196;44.560;2024-03-08T15:01:12;11.38;;;4.13;;
82952;SDS011;74888;40.196;44.560;2024-03-08T15:03:43;15.52;;;4.80;;
82952;SDS011;74888;40.196;44.560;2024-03-08T15:06:23;15.18;;;4.85;;
82952;SDS011;74888;40.196;44.560;2024-03-08T15:08:50;8.18;;;2.83;;
82952;SDS011;74888;40.196;44.560;2024-03-08T15:11:17;12.07;;;3.65;;
82952;SDS011;74888;40.196;44.560;2024-03-08T15:13:51;10.70;;;3.92;;
82952;SDS011;74888;40.196;44.560;2024-03-08T15:16:18;11.23;;;4.07;;
82952;SDS011;74888;40.196;44.560;2024-03-08T15:18:46;12.05;;;4.20;;
82952;SDS011;74888;40.196;44.560;2024-03-08T15:21:13;7.72;;;3.03;;
82952;SDS011;74888;40.196;44.560;2024-03-08T15:23:46;12.05;;;3.28;;